Time;durP1;ratioP1;P1;durP2;ratioP2;P2;SDS_P1;SDS_P2;PMS_P1;PMS_P2;Temp;Humidity;BMP_temperature;BMP_pressure;BME280_temperature;BME280_humidity;BME280_pressure;Samples;Min_cycle;Max_cycle;Signal;HPM_P1;HPM_P2
2023/01/15 00:01:19;;;;;;;0.40;0.30;;;13.90;92.20;;;;;;5111975;28;20398;-73
2023/01/15 00:03:44;;;;;;;0.40;0.30;;;13.90;92.40;;;;;;5111229;28;20380;-73
2023/01/15 00:06:10;;;;;;;0.40;0.30;;;13.90;93.10;;;;;;5112061;28;20387;-73
2023/01/15 00:08:35;;;;;;;2.00;0.30;;;13.90;93.30;;;;;;5111504;28;20400;-72
2023/01/15 00:11:04;;;;;;;0.40;0.30;;;13.90;93.90;;;;;;5111497;28;20754;-72
2023/01/15 00:13:30;;;;;;;0.90;0.40;;;13.80;95.00;;;;;;5111115;28;20372;-73
2023/01/15 00:16:10;;;;;;;1.40;0.30;;;13.80;97.10;;;;;;5111752;28;20369;-72
2023/01/15 00:18:36;;;;;;;0.90;0.40;;;13.60;1.00;;;;;;5111369;28;20874;-72
2023/01/15 00:21:04;;;;;;;0.60;0.22;;;13.40;99.90;;;;;;5111405;28;20767;-72
2023/01/15 00:29:02;;;;;;;0.60;0.30;;;12.90;1.00;;;;;;5111566;28;20411;-72
2023/01/15 00:31:29;;;;;;;0.50;0.30;;;12.80;1.00;;;;;;5111402;28;20854;-71
2023/01/15 00:33:54;;;;;;;0.70;0.40;;;12.70;1.00;;;;;;5110114;28;20424;-72
2023/01/15 00:36:20;;;;;;;1.10;0.30;;;12.60;4.40;;;;;;5111038;28;20860;-72
2023/01/15 00:38:46;;;;;;;1.20;0.47;;;12.40;98.60;;;;;;5111150;28;20385;-72
2023/01/15 00:41:11;;;;;;;0.50;0.30;;;12.30;99.90;;;;;;5111320;28;20403;-72
2023/01/15 00:43:37;;;;;;;1.40;0.30;;;12.20;99.90;;;;;;5110500;28;20383;-74
2023/01/15 00:46:04;;;;;;;0.40;0.20;;;12.00;99.90;;;;;;5111094;28;20403;-73
2023/01/15 00:48:30;;;;;;;0.70;0.40;;;11.90;99.90;;;;;;5110644;28;20423;-74
2023/01/15 00:50:55;;;;;;;0.40;0.30;;;11.90;99.90;;;;;;5111340;28;20868;-73
2023/01/15 00:53:21;;;;;;;0.47;0.30;;;12.00;99.90;;;;;;5110485;28;20379;-73
2023/01/15 00:55:46;;;;;;;1.10;0.30;;;11.90;99.90;;;;;;5111026;28;20396;-73
2023/01/15 00:58:12;;;;;;;0.90;0.30;;;12.00;99.90;;;;;;5110488;28;20445;-73
2023/01/15 01:00:37;;;;;;;0.40;0.30;;;12.00;99.90;;;;;;5110961;28;20384;-73
2023/01/15 01:03:03;;;;;;;0.60;0.30;;;12.00;99.90;;;;;;5109857;28;20387;-73
2023/01/15 01:05:29;;;;;;;0.67;0.27;;;12.10;99.90;;;;;;5111282;28;20444;-73
2023/01/15 01:07:55;;;;;;;0.57;0.40;;;12.10;99.90;;;;;;5105258;28;20387;-74
2023/01/15 01:10:20;;;;;;;0.80;0.35;;;12.10;99.90;;;;;;5090792;28;20406;-73
2023/01/15 01:12:50;;;;;;;0.40;0.27;;;12.30;99.90;;;;;;5095206;28;20856;-72
2023/01/15 01:15:15;;;;;;;0.45;0.20;;;12.30;99.90;;;;;;5110769;28;20384;-74
2023/01/15 01:17:41;;;;;;;0.40;0.30;;;12.40;99.90;;;;;;5110562;28;20436;-72
2023/01/15 01:20:08;;;;;;;0.60;0.30;;;12.50;99.90;;;;;;5110266;28;20512;-72
2023/01/15 01:22:34;;;;;;;0.90;0.20;;;12.50;99.90;;;;;;5109975;28;20376;-72
2023/01/15 01:24:59;;;;;;;0.57;0.30;;;12.40;99.90;;;;;;5110565;28;20380;-72
2023/01/15 01:27:25;;;;;;;0.40;0.20;;;12.50;99.90;;;;;;5110925;28;20792;-72
2023/01/15 01:29:50;;;;;;;0.50;0.30;;;12.50;99.90;;;;;;5110050;28;20469;-71
2023/01/15 01:32:16;;;;;;;0.40;0.30;;;12.60;94.50;;;;;;5110644;28;20388;-72
2023/01/15 01:34:41;;;;;;;0.40;0.30;;;12.70;36.20;;;;;;5109857;28;20408;-71
2023/01/15 01:37:07;;;;;;;1.20;0.30;;;12.70;24.50;;;;;;5110610;28;20754;-71
2023/01/15 01:39:32;;;;;;;0.40;0.30;;;12.70;20.00;;;;;;5089734;22;20445;-74
2023/01/15 01:41:58;;;;;;;0.40;0.20;;;12.80;8.00;;;;;;5030170;28;20390;-73
2023/01/15 01:44:35;;;;;;;0.40;0.30;;;12.80;29.60;;;;;;5029864;28;20816;-73
2023/01/15 01:47:05;;;;;;;0.50;0.30;;;12.90;1.80;;;;;;5016017;28;20387;-73
2023/01/15 01:49:32;;;;;;;1.05;0.30;;;12.80;9.10;;;;;;5033563;28;20514;-73
2023/01/15 01:52:06;;;;;;;0.50;0.30;;;13.00;1.00;;;;;;5034212;28;20394;-73
2023/01/15 01:54:35;;;;;;;0.40;0.30;;;13.10;1.00;;;;;;5032735;28;20395;-73
2023/01/15 01:57:01;;;;;;;0.40;0.30;;;13.20;1.00;;;;;;5033773;28;20429;-73
2023/01/15 01:59:28;;;;;;;0.40;0.30;;;13.20;1.00;;;;;;5033461;28;20425;-73
2023/01/15 02:01:53;;;;;;;0.50;0.38;;;13.30;1.00;;;;;;5033751;28;20382;-73
2023/01/15 02:04:21;;;;;;;0.40;0.30;;;13.40;1.00;;;;;;5032717;28;20474;-72
2023/01/15 02:06:47;;;;;;;0.80;0.30;;;13.40;1.00;;;;;;5033607;28;20391;-73
2023/01/15 02:09:12;;;;;;;0.50;0.40;;;13.30;1.00;;;;;;5017150;28;20408;-72
2023/01/15 02:11:38;;;;;;;0.40;0.30;;;13.30;1.00;;;;;;5029865;28;20406;-73
2023/01/15 02:14:29;;;;;;;0.60;0.40;;;13.20;1.00;;;;;;5032584;28;20379;-73
2023/01/15 02:17:10;;;;;;;0.57;0.32;;;13.30;1.00;;;;;;5033199;28;20408;-73
2023/01/15 02:20:05;;;;;;;1.30;0.30;;;13.30;1.00;;;;;;5033295;28;20481;-73
2023/01/15 02:22:57;;;;;;;0.70;0.40;;;13.30;1.00;;;;;;5013202;28;20423;-73
2023/01/15 02:26:01;;;;;;;0.40;0.30;;;13.40;1.00;;;;;;5012602;28;20909;-72
2023/01/15 02:28:31;;;;;;;0.70;0.40;;;13.30;1.00;;;;;;5032775;28;20402;-72
2023/01/15 02:31:11;;;;;;;0.40;0.37;;;13.40;1.00;;;;;;5033207;28;20379;-73
2023/01/15 02:33:42;;;;;;;0.40;0.30;;;13.40;1.00;;;;;;5032322;28;20379;-73
2023/01/15 02:36:11;;;;;;;0.50;0.30;;;13.50;1.00;;;;;;5032941;28;20424;-72
2023/01/15 02:38:44;;;;;;;0.50;0.30;;;13.60;99.90;;;;;;5032698;28;20452;-73
2023/01/15 02:41:15;;;;;;;0.57;0.30;;;13.50;1.00;;;;;;5033104;28;20397;-73
2023/01/15 02:43:42;;;;;;;0.40;0.30;;;13.50;1.00;;;;;;5032214;28;20398;-73
2023/01/15 02:46:08;;;;;;;0.77;0.30;;;13.50;1.00;;;;;;5032871;28;20884;-73
2023/01/15 02:48:36;;;;;;;0.43;0.30;;;13.40;1.00;;;;;;5032415;28;20407;-73
2023/01/15 02:51:11;;;;;;;0.40;0.30;;;13.30;1.00;;;;;;5029300;28;20388;-73
2023/01/15 02:53:40;;;;;;;0.47;0.30;;;13.20;1.00;;;;;;5025071;28;20395;-72
2023/01/15 02:56:13;;;;;;;0.50;0.30;;;13.20;1.00;;;;;;5028680;28;20387;-73
2023/01/15 02:58:41;;;;;;;0.40;0.30;;;13.10;1.00;;;;;;5029384;28;20406;-73
2023/01/15 03:01:13;;;;;;;0.40;0.30;;;13.10;1.00;;;;;;5031629;28;20459;-74
2023/01/15 03:03:58;;;;;;;0.40;0.30;;;13.00;1.00;;;;;;5031366;28;20423;-73
2023/01/15 03:06:37;;;;;;;0.50;0.35;;;13.00;1.00;;;;;;5031329;28;20383;-72
2023/01/15 03:09:05;;;;;;;0.82;0.32;;;12.90;1.00;;;;;;5028920;28;20411;-73
2023/01/15 03:11:36;;;;;;;0.60;0.40;;;12.90;1.00;;;;;;5026978;28;20429;-73
2023/01/15 03:14:10;;;;;;;0.57;0.30;;;12.50;99.90;;;;;;5027956;28;20395;-74
2023/01/15 03:16:38;;;;;;;1.17;0.32;;;12.30;99.90;;;;;;5029911;28;20383;-74
2023/01/15 03:19:25;;;;;;;0.40;0.30;;;12.30;99.90;;;;;;5031562;28;20386;-74
2023/01/15 03:21:58;;;;;;;0.40;0.30;;;12.20;99.90;;;;;;5028960;28;20486;-75
2023/01/15 03:24:31;;;;;;;0.45;0.30;;;12.10;99.90;;;;;;5031081;28;20387;-75
2023/01/15 03:26:57;;;;;;;1.42;0.32;;;12.10;99.90;;;;;;5030063;28;20387;-72
2023/01/15 03:29:27;;;;;;;0.85;0.40;;;12.20;99.90;;;;;;5031196;28;20411;-75
2023/01/15 03:31:53;;;;;;;0.90;0.35;;;12.20;99.90;;;;;;5029397;28;20739;-72
2023/01/15 03:34:18;;;;;;;0.50;0.30;;;12.20;99.90;;;;;;5028801;28;20406;-72
2023/01/15 03:36:44;;;;;;;0.68;0.30;;;12.20;99.90;;;;;;5031499;28;20387;-72
2023/01/15 03:39:10;;;;;;;1.00;0.30;;;12.30;99.90;;;;;;5012743;28;20415;-72
2023/01/15 03:41:45;;;;;;;0.50;0.30;;;12.40;99.90;;;;;;5028340;28;20496;-74
2023/01/15 03:44:31;;;;;;;0.77;0.38;;;12.40;99.90;;;;;;5027817;28;20453;-72
2023/01/15 03:47:25;;;;;;;0.50;0.30;;;12.40;99.90;;;;;;5011549;28;20395;-72
2023/01/15 03:50:03;;;;;;;0.43;0.30;;;12.40;99.90;;;;;;5028254;28;20411;-73
2023/01/15 03:52:43;;;;;;;0.70;0.37;;;12.50;96.20;;;;;;5030637;28;20485;-71
2023/01/15 03:55:16;;;;;;;1.02;0.30;;;12.50;99.90;;;;;;5030109;28;20408;-71
2023/01/15 03:57:47;;;;;;;0.40;0.30;;;12.40;99.90;;;;;;5030389;28;20762;-72
2023/01/15 04:00:33;;;;;;;0.50;0.32;;;12.40;99.90;;;;;;5029427;28;20399;-72
2023/01/15 04:03:00;;;;;;;0.50;0.30;;;12.50;99.90;;;;;;5030769;28;20793;-72
2023/01/15 04:05:27;;;;;;;0.70;0.30;;;12.60;46.60;;;;;;5031432;28;20387;-72
2023/01/15 04:07:56;;;;;;;0.43;0.30;;;12.70;27.10;;;;;;5030518;28;20415;-72
2023/01/15 04:10:21;;;;;;;0.60;0.30;;;12.70;80.20;;;;;;5030790;28;20886;-73
2023/01/15 04:12:48;;;;;;;0.40;0.30;;;12.60;61.10;;;;;;5030596;28;20409;-73
2023/01/15 04:15:14;;;;;;;0.40;0.30;;;12.50;99.90;;;;;;5031205;28;20378;-73
2023/01/15 04:17:39;;;;;;;0.60;0.30;;;12.50;99.90;;;;;;5031064;28;20379;-73
2023/01/15 04:20:06;;;;;;;0.70;0.40;;;12.50;99.90;;;;;;5030806;28;20762;-73
2023/01/15 04:22:31;;;;;;;0.47;0.40;;;12.40;99.90;;;;;;5030548;28;20482;-73
2023/01/15 04:24:57;;;;;;;0.50;0.30;;;12.30;99.90;;;;;;5030446;28;20545;-73
2023/01/15 04:27:23;;;;;;;0.40;0.30;;;12.20;99.90;;;;;;5030964;28;20383;-72
2023/01/15 04:29:48;;;;;;;0.77;0.47;;;12.10;99.90;;;;;;5030745;28;20426;-73
2023/01/15 04:32:14;;;;;;;0.80;0.40;;;11.90;99.90;;;;;;5030227;28;20395;-72
2023/01/15 04:34:40;;;;;;;0.40;0.30;;;12.00;99.90;;;;;;5030373;28;20390;-72
2023/01/15 04:37:05;;;;;;;0.50;0.30;;;12.00;99.90;;;;;;5013534;28;20398;-73
2023/01/15 04:39:31;;;;;;;0.60;0.30;;;12.00;99.90;;;;;;5031034;28;20425;-73
2023/01/15 04:44:41;;;;;;;0.90;0.30;;;11.90;99.90;;;;;;5030475;28;20386;-72
2023/01/15 04:47:07;;;;;;;0.40;0.30;;;12.00;99.90;;;;;;5030977;28;20387;-73
2023/01/15 04:49:33;;;;;;;1.30;0.40;;;12.00;99.90;;;;;;5030930;28;20417;-73
2023/01/15 04:51:58;;;;;;;0.50;0.30;;;12.00;99.90;;;;;;5030752;28;20545;-73
2023/01/15 04:54:24;;;;;;;0.40;0.30;;;12.00;99.90;;;;;;5030031;28;20910;-72
2023/01/15 04:56:52;;;;;;;1.45;0.30;;;12.00;99.90;;;;;;5030971;28;20390;-73
2023/01/15 04:59:20;;;;;;;1.30;0.40;;;11.90;99.90;;;;;;5030791;28;20388;-72
2023/01/15 05:01:45;;;;;;;0.70;0.50;;;11.90;99.90;;;;;;5030833;28;20517;-73
2023/01/15 05:04:11;;;;;;;0.50;0.30;;;11.70;99.90;;;;;;5029738;28;20482;-72
2023/01/15 05:06:36;;;;;;;0.40;0.30;;;11.60;99.90;;;;;;5030736;28;20387;-72
2023/01/15 05:09:04;;;;;;;0.60;0.30;;;11.50;99.90;;;;;;5008407;28;20414;-73
2023/01/15 05:11:30;;;;;;;0.50;0.40;;;11.50;99.90;;;;;;5030773;28;20379;-73
2023/01/15 05:13:55;;;;;;;0.70;0.40;;;11.50;99.90;;;;;;5030012;28;20391;-72
2023/01/15 05:16:26;;;;;;;0.53;0.30;;;11.50;99.90;;;;;;5030605;28;20927;-73
2023/01/15 05:18:53;;;;;;;1.30;0.30;;;11.50;99.90;;;;;;5029372;28;20414;-72
2023/01/15 05:21:22;;;;;;;1.00;0.30;;;11.60;99.90;;;;;;5030472;28;20482;-72
2023/01/15 05:23:49;;;;;;;0.75;0.40;;;11.60;99.90;;;;;;5029514;28;20394;-73
2023/01/15 05:26:15;;;;;;;0.75;0.50;;;11.70;99.90;;;;;;5030058;28;20406;-73
2023/01/15 05:28:41;;;;;;;0.50;0.30;;;11.70;99.90;;;;;;5030438;28;20407;-72
2023/01/15 05:31:09;;;;;;;0.50;0.40;;;11.70;99.90;;;;;;5030405;28;20391;-73
2023/01/15 05:33:35;;;;;;;0.95;0.60;;;11.90;99.90;;;;;;5029033;28;20391;-72
2023/01/15 05:36:10;;;;;;;0.80;0.40;;;12.00;99.90;;;;;;5011726;28;20864;-73
2023/01/15 05:38:35;;;;;;;0.90;0.40;;;12.20;99.90;;;;;;5029886;28;20403;-73
2023/01/15 05:43:50;;;;;;;0.60;0.50;;;12.20;99.90;;;;;;5029731;28;20381;-73
2023/01/15 05:46:16;;;;;;;0.67;0.47;;;12.20;97.70;;;;;;5030244;28;20390;-73
2023/01/15 05:48:42;;;;;;;0.70;0.40;;;12.20;99.90;;;;;;5030211;28;20877;-74
2023/01/15 05:51:07;;;;;;;0.60;0.40;;;12.20;58.90;;;;;;5030067;28;20399;-73
2023/01/15 05:53:33;;;;;;;0.60;0.40;;;12.20;99.90;;;;;;5029614;28;20387;-73
2023/01/15 05:56:03;;;;;;;2.70;0.40;;;12.30;58.00;;;;;;5030249;28;20598;-73
2023/01/15 05:58:29;;;;;;;1.10;0.50;;;12.30;45.10;;;;;;5029746;28;20403;-73
2023/01/15 06:00:55;;;;;;;0.98;0.50;;;12.30;72.80;;;;;;5030140;28;20375;-73
2023/01/15 06:03:21;;;;;;;0.43;0.40;;;12.30;60.50;;;;;;5029502;28;20386;-73
2023/01/15 06:05:50;;;;;;;0.90;0.47;;;12.30;68.70;;;;;;5030141;28;20478;-73
2023/01/15 06:08:17;;;;;;;0.70;0.40;;;12.40;36.80;;;;;;5023334;28;20607;-73
2023/01/15 06:10:44;;;;;;;0.50;0.40;;;12.40;18.80;;;;;;5029903;28;20417;-73
2023/01/15 06:13:09;;;;;;;1.20;0.40;;;12.40;71.20;;;;;;5029179;28;20411;-74
2023/01/15 06:15:35;;;;;;;1.20;0.50;;;12.30;99.90;;;;;;5012451;28;20427;-73
2023/01/15 06:18:01;;;;;;;0.80;0.40;;;12.00;99.90;;;;;;5029991;28;20387;-74
2023/01/15 06:20:26;;;;;;;0.70;0.40;;;11.80;99.90;;;;;;5029759;28;20402;-74
2023/01/15 06:22:52;;;;;;;0.50;0.50;;;11.60;99.90;;;;;;5029148;28;20482;-74
2023/01/15 06:25:17;;;;;;;0.70;0.50;;;11.50;99.90;;;;;;5012290;28;20391;-74
2023/01/15 06:27:43;;;;;;;0.60;0.40;;;11.30;99.90;;;;;;5029527;28;20395;-74
2023/01/15 06:30:10;;;;;;;1.60;0.60;;;11.00;99.90;;;;;;5030231;28;20403;-73
2023/01/15 06:32:36;;;;;;;0.55;0.50;;;10.90;99.90;;;;;;5015049;28;20391;-74
2023/01/15 06:35:01;;;;;;;1.17;0.60;;;10.80;99.90;;;;;;5033680;28;20429;-73
2023/01/15 06:37:27;;;;;;;1.00;0.60;;;10.80;99.90;;;;;;5033165;28;20395;-74
2023/01/15 06:39:52;;;;;;;1.80;0.60;;;10.70;99.90;;;;;;5015372;28;20477;-73
2023/01/15 06:47:46;;;;;;;0.52;0.40;;;10.50;99.90;;;;;;5033312;28;20389;-74
2023/01/15 06:50:13;;;;;;;0.60;0.52;;;10.50;99.90;;;;;;5033257;28;20407;-75
2023/01/15 06:52:38;;;;;;;0.50;0.43;;;10.40;99.90;;;;;;5032070;28;20391;-75
2023/01/15 06:55:04;;;;;;;0.80;0.40;;;10.40;99.90;;;;;;5033317;28;20473;-74
2023/01/15 06:57:30;;;;;;;0.60;0.50;;;10.50;99.90;;;;;;5033182;28;20383;-75
2023/01/15 06:59:55;;;;;;;0.60;0.40;;;10.50;99.90;;;;;;5032721;28;20501;-74
2023/01/15 07:02:21;;;;;;;0.50;0.30;;;10.50;99.90;;;;;;5032915;28;20478;-74
2023/01/15 07:04:47;;;;;;;1.20;0.30;;;10.50;99.90;;;;;;5032300;28;20417;-74
2023/01/15 07:07:18;;;;;;;0.80;0.40;;;10.60;99.90;;;;;;5032848;28;20812;-74
2023/01/15 07:09:43;;;;;;;0.50;0.40;;;10.60;99.90;;;;;;5013020;28;20866;-73
2023/01/15 07:12:09;;;;;;;0.50;0.40;;;10.50;99.90;;;;;;5014955;28;20454;-74
2023/01/15 07:14:35;;;;;;;0.50;0.40;;;10.40;99.90;;;;;;5032257;28;20473;-75
2023/01/15 07:17:01;;;;;;;0.40;0.30;;;10.40;99.90;;;;;;5032510;28;20391;-75
2023/01/15 07:19:27;;;;;;;0.73;0.40;;;9.80;99.90;;;;;;5014907;28;20893;-74
2023/01/15 07:21:53;;;;;;;0.60;0.40;;;9.30;99.90;;;;;;5014746;28;20399;-74
2023/01/15 07:24:18;;;;;;;0.40;0.30;;;8.90;99.90;;;;;;5031644;28;20388;-75
2023/01/15 07:26:44;;;;;;;0.50;0.40;;;8.70;99.90;;;;;;5032261;28;20403;-75
2023/01/15 07:29:10;;;;;;;0.40;0.30;;;8.50;99.90;;;;;;5032680;28;20403;-74
2023/01/15 07:31:36;;;;;;;0.93;0.40;;;8.40;99.90;;;;;;5032478;28;20487;-74
2023/01/15 07:34:03;;;;;;;0.50;0.40;;;8.20;99.90;;;;;;5031796;28;20381;-74
2023/01/15 07:36:28;;;;;;;0.50;0.40;;;8.10;99.90;;;;;;5031992;28;20928;-73
2023/01/15 07:38:54;;;;;;;0.50;0.30;;;8.00;99.90;;;;;;5032521;28;20403;-74
2023/01/15 07:49:47;;;;;;;0.80;0.50;;;8.00;99.90;;;;;;5032728;28;20414;-74
2023/01/15 07:52:18;;;;;;;0.50;0.40;;;7.90;99.90;;;;;;5032630;28;20379;-74
2023/01/15 07:54:44;;;;;;;0.60;0.50;;;7.90;99.90;;;;;;5031570;28;20869;-74
2023/01/15 07:57:11;;;;;;;0.50;0.40;;;7.80;99.90;;;;;;5031610;28;20391;-74
2023/01/15 07:59:37;;;;;;;0.70;0.40;;;7.80;99.90;;;;;;5031929;28;20391;-74
2023/01/15 08:02:03;;;;;;;1.00;0.50;;;7.80;99.90;;;;;;5031889;28;20387;-74
2023/01/15 08:04:28;;;;;;;0.50;0.30;;;7.80;99.90;;;;;;5031134;28;20940;-74
2023/01/15 08:06:54;;;;;;;0.60;0.40;;;7.70;99.90;;;;;;5031573;28;20410;-74
2023/01/15 08:09:19;;;;;;;0.50;0.30;;;7.70;99.90;;;;;;5031328;28;20423;-74
2023/01/15 08:17:13;;;;;;;0.70;0.40;;;7.60;99.90;;;;;;5031612;28;20529;-74
2023/01/15 08:19:38;;;;;;;0.50;0.30;;;7.60;99.90;;;;;;5031290;28;20497;-74
2023/01/15 08:22:04;;;;;;;0.50;0.30;;;7.60;99.90;;;;;;5031530;28;20883;-74
2023/01/15 08:24:29;;;;;;;0.40;0.30;;;7.60;99.90;;;;;;5030710;28;20394;-75
2023/01/15 08:26:55;;;;;;;0.50;0.40;;;7.60;99.90;;;;;;5031578;28;20383;-75
2023/01/15 08:29:21;;;;;;;0.50;0.30;;;7.60;99.90;;;;;;5013442;28;20431;-75
2023/01/15 08:31:46;;;;;;;1.40;0.30;;;7.50;99.90;;;;;;5031513;28;20466;-74
2023/01/15 08:34:12;;;;;;;0.60;0.40;;;7.50;99.90;;;;;;5030657;28;20949;-74
2023/01/15 08:36:37;;;;;;;0.50;0.40;;;7.60;99.90;;;;;;5031295;28;20470;-74
2023/01/15 08:39:03;;;;;;;0.80;0.50;;;7.50;99.90;;;;;;5030874;28;20418;-73
2023/01/15 08:41:30;;;;;;;0.80;0.60;;;7.50;99.90;;;;;;5031032;28;20403;-74
2023/01/15 08:43:55;;;;;;;1.10;1.00;;;7.50;99.90;;;;;;5030338;28;20405;-74
2023/01/15 08:46:21;;;;;;;0.93;0.73;;;7.60;99.90;;;;;;5013271;28;20395;-75
2023/01/15 08:48:47;;;;;;;0.50;0.50;;;7.50;99.90;;;;;;5013351;28;20773;-75
2023/01/15 08:51:13;;;;;;;0.90;0.50;;;7.50;99.90;;;;;;5031033;28;20407;-74
2023/01/15 08:53:38;;;;;;;0.45;0.30;;;7.40;99.90;;;;;;5030011;28;20470;-75
2023/01/15 08:56:12;;;;;;;0.70;0.30;;;7.10;99.90;;;;;;5030820;28;20433;-74
2023/01/15 08:58:37;;;;;;;0.90;0.60;;;7.10;99.90;;;;;;5030975;28;20761;-74
2023/01/15 09:01:08;;;;;;;0.65;0.50;;;7.20;99.90;;;;;;5013259;28;20383;-73
2023/01/15 09:03:34;;;;;;;0.80;0.52;;;7.10;99.90;;;;;;5030125;28;20387;-74
2023/01/15 09:06:00;;;;;;;0.63;0.40;;;7.20;99.90;;;;;;5013431;28;20388;-74
2023/01/15 09:08:27;;;;;;;0.82;0.60;;;7.20;99.90;;;;;;5020594;28;21089;-73
2023/01/15 09:10:57;;;;;;;0.60;0.50;;;7.10;99.90;;;;;;5010918;28;20396;-73
2023/01/15 09:13:24;;;;;;;1.38;0.50;;;6.90;99.90;;;;;;5014629;28;20418;-73
2023/01/15 09:15:49;;;;;;;0.80;0.60;;;6.70;99.90;;;;;;5030840;28;20387;-73
2023/01/15 09:18:19;;;;;;;0.73;0.60;;;6.70;99.90;;;;;;5030367;28;20420;-73
2023/01/15 09:20:45;;;;;;;0.68;0.60;;;6.70;99.90;;;;;;5030448;28;21047;-73
2023/01/15 09:23:11;;;;;;;0.50;0.40;;;6.80;99.90;;;;;;5029571;28;20794;-73
2023/01/15 09:25:36;;;;;;;0.60;0.47;;;6.60;99.90;;;;;;5030481;28;20430;-73
2023/01/15 09:28:02;;;;;;;0.82;0.80;;;6.60;99.90;;;;;;5030066;28;20429;-73
2023/01/15 09:30:28;;;;;;;1.60;1.00;;;6.70;99.90;;;;;;5012537;28;20939;-73
2023/01/15 09:32:54;;;;;;;1.10;1.00;;;6.70;99.90;;;;;;5029662;28;20395;-73
2023/01/15 09:35:21;;;;;;;0.80;0.80;;;6.60;99.90;;;;;;5012554;28;20899;-73
2023/01/15 09:37:51;;;;;;;1.08;0.90;;;6.70;99.90;;;;;;5030203;28;20406;-73
2023/01/15 09:40:35;;;;;;;0.70;0.65;;;6.60;99.90;;;;;;5030155;28;20394;-73
2023/01/15 09:43:23;;;;;;;0.55;0.55;;;6.60;99.90;;;;;;5029576;28;20395;-72
2023/01/15 09:45:55;;;;;;;0.50;0.40;;;6.40;99.90;;;;;;5030280;28;20984;-72
2023/01/15 09:48:40;;;;;;;1.08;0.98;;;6.40;99.90;;;;;;5030208;28;20414;-73
2023/01/15 09:51:15;;;;;;;0.90;0.40;;;6.30;99.90;;;;;;5030344;28;20387;-72
2023/01/15 09:54:04;;;;;;;0.50;0.40;;;6.20;99.90;;;;;;5029205;28;20752;-72
2023/01/15 09:56:32;;;;;;;0.70;0.40;;;6.10;99.90;;;;;;5030204;28;20391;-72
2023/01/15 09:59:00;;;;;;;0.50;0.35;;;6.10;99.90;;;;;;5029563;28;20389;-72
2023/01/15 10:01:31;;;;;;;0.60;0.50;;;6.10;99.90;;;;;;5025834;28;20410;-72
2023/01/15 10:04:08;;;;;;;0.50;0.30;;;6.00;99.90;;;;;;5025868;28;20877;-72
2023/01/15 10:06:57;;;;;;;0.60;0.40;;;6.00;99.90;;;;;;5032174;28;20394;-71
2023/01/15 10:09:30;;;;;;;0.60;0.38;;;6.00;99.90;;;;;;5032355;28;20411;-71
2023/01/15 10:15:01;;;;;;;0.70;0.40;;;5.90;99.90;;;;;;5032885;28;20468;-71
2023/01/15 10:17:35;;;;;;;0.63;0.50;;;5.90;99.90;;;;;;5033720;28;20397;-71
2023/01/15 10:20:01;;;;;;;0.60;0.40;;;5.80;99.90;;;;;;5033639;28;20402;-70
2023/01/15 10:22:42;;;;;;;0.40;0.30;;;5.70;99.90;;;;;;5033440;28;20776;-73
2023/01/15 10:25:14;;;;;;;0.40;0.30;;;5.70;99.90;;;;;;5033661;28;20402;-72
2023/01/15 10:27:49;;;;;;;0.80;0.30;;;5.60;99.90;;;;;;5033521;28;20406;-72
2023/01/15 10:30:36;;;;;;;0.50;0.30;;;5.60;99.90;;;;;;5033306;28;20928;-73
2023/01/15 10:33:20;;;;;;;0.50;0.40;;;5.50;99.90;;;;;;5024055;28;20891;-74
2023/01/15 10:35:58;;;;;;;0.40;0.30;;;5.50;99.90;;;;;;5027432;28;20398;-73
2023/01/15 10:38:36;;;;;;;1.20;0.30;;;5.50;99.90;;;;;;5033491;28;20374;-72
2023/01/15 10:44:50;;;;;;;0.80;0.50;;;5.50;99.90;;;;;;5031649;28;20473;-72
2023/01/15 10:47:21;;;;;;;2.00;0.60;;;5.50;99.90;;;;;;5033427;28;20391;-72
2023/01/15 10:49:49;;;;;;;0.68;0.50;;;5.50;99.90;;;;;;5032968;28;20924;-72
2023/01/15 10:52:36;;;;;;;1.00;0.70;;;5.40;99.90;;;;;;5032937;28;20819;-72
2023/01/15 10:55:26;;;;;;;0.50;0.40;;;5.40;99.90;;;;;;5033459;28;20391;-72
2023/01/15 10:57:59;;;;;;;0.70;0.45;;;5.50;99.90;;;;;;5015303;28;20395;-72
2023/01/15 11:00:25;;;;;;;0.60;0.40;;;5.40;99.90;;;;;;5033164;28;20402;-72
2023/01/15 11:03:05;;;;;;;0.50;0.40;;;5.50;99.90;;;;;;5014736;28;20391;-72
2023/01/15 11:05:31;;;;;;;0.60;0.40;;;5.50;99.90;;;;;;5014996;28;20939;-72
2023/01/15 11:07:58;;;;;;;0.70;0.43;;;5.50;99.90;;;;;;5015074;28;20486;-72
2023/01/15 11:10:23;;;;;;;1.40;0.40;;;5.50;99.90;;;;;;5032526;28;20442;-72
2023/01/15 11:21:23;;;;;;;0.60;0.50;;;5.60;99.90;;;;;;5032455;28;20807;-73
2023/01/15 11:23:50;;;;;;;0.57;0.40;;;5.70;99.90;;;;;;5031735;28;20383;-72
2023/01/15 11:26:24;;;;;;;0.70;0.50;;;5.60;99.90;;;;;;5032562;28;20970;-72
2023/01/15 11:28:51;;;;;;;0.70;0.60;;;5.70;99.90;;;;;;5032338;28;20407;-72
2023/01/15 11:31:16;;;;;;;0.80;0.50;;;5.60;99.90;;;;;;5032180;28;20429;-72
2023/01/15 11:33:57;;;;;;;0.90;0.60;;;5.60;99.90;;;;;;5031505;28;20442;-72
2023/01/15 11:36:24;;;;;;;0.80;0.53;;;5.60;99.90;;;;;;5032420;28;20908;-72
2023/01/15 11:38:51;;;;;;;0.80;0.60;;;5.50;99.90;;;;;;5014543;28;20403;-72
2023/01/15 11:52:54;;;;;;;1.52;0.50;;;5.30;99.90;;;;;;5031390;28;20762;-72
2023/01/15 11:55:23;;;;;;;0.90;0.60;;;5.30;99.90;;;;;;5032046;28;20392;-71
2023/01/15 11:57:49;;;;;;;1.40;0.50;;;5.40;99.90;;;;;;5031898;28;20826;-72
2023/01/15 12:00:24;;;;;;;1.20;0.60;;;5.40;99.90;;;;;;5031965;28;20801;-72
2023/01/15 12:02:53;;;;;;;1.30;0.40;;;5.30;99.90;;;;;;5031278;28;21200;-72
2023/01/15 12:05:29;;;;;;;0.80;0.70;;;5.30;99.90;;;;;;5031735;28;20386;-72
2023/01/15 12:08:00;;;;;;;0.90;0.60;;;5.30;99.90;;;;;;5031581;28;20456;-72
2023/01/15 12:11:04;;;;;;;0.88;0.77;;;5.30;99.90;;;;;;5031622;28;20487;-72
2023/01/15 12:13:48;;;;;;;1.17;0.90;;;5.30;99.90;;;;;;5030841;28;20458;-72
2023/01/15 12:16:59;;;;;;;1.70;0.98;;;5.30;99.90;;;;;;5031327;28;20715;-73
2023/01/15 12:19:31;;;;;;;2.78;1.70;;;5.30;99.90;;;;;;4989603;28;20917;-72
2023/01/15 12:22:26;;;;;;;1.43;1.33;;;5.30;99.90;;;;;;4989538;28;20945;-72
2023/01/15 12:24:57;;;;;;;0.60;0.50;;;5.30;99.90;;;;;;5020685;28;20814;-72
2023/01/15 12:27:48;;;;;;;1.23;0.60;;;5.30;99.90;;;;;;5031682;28;20409;-75
2023/01/15 12:30:38;;;;;;;1.83;0.60;;;5.40;99.90;;;;;;5011303;28;20405;-71
2023/01/15 12:33:35;;;;;;;1.50;0.50;;;5.30;99.90;;;;;;5011122;28;20382;-72
2023/01/15 12:36:16;;;;;;;0.90;0.60;;;5.40;99.90;;;;;;5027261;28;20470;-73
2023/01/15 12:38:54;;;;;;;3.20;0.50;;;5.40;99.90;;;;;;5031095;28;20453;-72
2023/01/15 12:45:07;;;;;;;3.20;1.80;;;5.40;99.90;;;;;;5030428;28;20601;-72
2023/01/15 12:47:42;;;;;;;1.50;0.60;;;5.40;99.90;;;;;;5030850;28;20391;-72
2023/01/15 12:50:10;;;;;;;0.90;0.60;;;5.40;99.90;;;;;;5031011;28;20430;-72
2023/01/15 12:52:41;;;;;;;1.90;0.70;;;5.40;99.90;;;;;;5030297;28;20379;-72
2023/01/15 12:55:21;;;;;;;1.20;0.88;;;5.40;99.90;;;;;;5031154;28;20386;-73
2023/01/15 12:57:55;;;;;;;1.40;0.80;;;5.30;99.90;;;;;;5030703;28;20932;-73
2023/01/15 13:00:29;;;;;;;1.50;0.70;;;5.50;99.90;;;;;;5030646;28;20917;-73
2023/01/15 13:03:23;;;;;;;1.20;1.00;;;5.50;99.90;;;;;;5029972;28;20387;-73
2023/01/15 13:05:57;;;;;;;1.00;0.73;;;5.50;99.90;;;;;;5013213;28;20801;-73
2023/01/15 13:08:26;;;;;;;1.27;0.60;;;5.50;99.90;;;;;;5030706;28;20940;-73
2023/01/15 13:10:52;;;;;;;0.90;0.40;;;5.60;99.90;;;;;;5030399;28;20407;-73
2023/01/15 13:13:23;;;;;;;0.80;0.60;;;5.50;99.90;;;;;;5012295;28;20498;-73
2023/01/15 13:16:03;;;;;;;1.40;0.70;;;5.60;99.90;;;;;;5030356;28;20406;-74
2023/01/15 13:19:16;;;;;;;1.60;0.70;;;5.60;99.90;;;;;;5030782;28;20453;-73
2023/01/15 13:21:44;;;;;;;1.10;0.50;;;5.60;99.90;;;;;;5030383;28;20375;-74
2023/01/15 13:24:34;;;;;;;1.88;0.60;;;5.80;99.90;;;;;;5029506;28;20395;-74
2023/01/15 13:27:50;;;;;;;0.80;0.50;;;6.10;99.90;;;;;;5030446;28;20418;-73
2023/01/15 13:30:27;;;;;;;2.60;1.00;;;6.20;99.90;;;;;;4988798;28;20925;-71
2023/01/15 13:32:57;;;;;;;0.80;0.45;;;6.40;99.90;;;;;;5028165;28;20494;-71
2023/01/15 13:35:29;;;;;;;2.50;0.90;;;6.40;99.90;;;;;;5030367;28;20817;-73
2023/01/15 13:37:58;;;;;;;0.90;0.50;;;6.40;99.90;;;;;;5030395;28;20379;-74
2023/01/15 13:40:37;;;;;;;1.83;0.50;;;6.40;99.90;;;;;;5031233;28;20402;-73
2023/01/15 13:43:07;;;;;;;0.87;0.73;;;6.30;99.90;;;;;;5033417;28;20826;-73
2023/01/15 13:45:39;;;;;;;2.83;0.93;;;6.50;99.90;;;;;;5034153;28;20426;-73
2023/01/15 13:48:15;;;;;;;0.98;0.50;;;6.40;99.90;;;;;;5034247;28;20817;-73
2023/01/15 13:50:58;;;;;;;3.55;0.60;;;6.40;99.90;;;;;;5034351;28;20410;-72
2023/01/15 13:53:34;;;;;;;1.60;0.80;;;6.50;99.90;;;;;;5033504;28;20387;-72
2023/01/15 13:56:13;;;;;;;1.63;0.50;;;6.40;99.90;;;;;;5034115;28;20399;-73
2023/01/15 13:59:00;;;;;;;1.50;0.60;;;7.40;99.90;;;;;;5016543;28;20470;-73
2023/01/15 14:01:33;;;;;;;1.10;0.60;;;6.90;99.90;;;;;;5033657;28;20403;-73
2023/01/15 14:04:16;;;;;;;1.50;0.57;;;6.80;99.90;;;;;;5032942;28;20833;-73
2023/01/15 14:06:44;;;;;;;1.92;0.55;;;6.50;99.90;;;;;;5016343;28;20391;-73
2023/01/15 14:09:28;;;;;;;1.30;0.80;;;6.60;99.90;;;;;;5017939;28;20400;-73
2023/01/15 14:11:53;;;;;;;0.80;0.60;;;6.60;99.90;;;;;;5014257;28;20387;-73